Time,TemperatureF,DewpointF,PressureIn,WindDirection,WindDirectionDegrees,WindSpeedMPH,WindSpeedGustMPH,Humidity,HourlyPrecipIn,Conditions,Clouds,dailyrainin,SoftwareType,DateUTC
2013-09-06 00:07:00,61.4,37.0,30.41,SE,144,4.0,8.0,41,0.00,,,0.00,weatherlink.com 1.10,2013-09-06 06:07:00,
2013-09-06 00:22:00,63.4,37.0,30.41,SE,140,4.0,7.0,38,0.00,,,0.00,weatherlink.com 1.10,2013-09-06 06:22:00,
2013-09-06 00:37:00,63.9,37.0,30.42,SE,140,0.0,8.0,37,0.00,,,0.00,weatherlink.com 1.10,2013-09-06 06:37:00,
2013-09-06 00:52:00,62.8,37.0,30.42,SE,140,0.0,1.0,38,0.00,,,0.00,weatherlink.com 1.10,2013-09-06 06:52:00,
2013-09-06 01:07:00,60.0,37.0,30.43,SE,140,0.0,1.0,42,0.00,,,0.00,weatherlink.com 1.10,2013-09-06 07:07:00,
2013-09-06 01:22:00,59.0,36.0,30.44,SE,140,0.0,1.0,43,0.00,,,0.00,weatherlink.com 1.10,2013-09-06 07:22:00,
2013-09-06 01:37:00,57.7,37.0,30.44,SE,140,0.0,1.0,46,0.00,,,0.00,weatherlink.com 1.10,2013-09-06 07:37:00,
2013-09-06 01:52:00,57.4,37.0,30.44,SE,140,1.0,4.0,46,0.00,,,0.00,weatherlink.com 1.10,2013-09-06 07:52:00,
2013-09-06 02:07:00,58.3,37.0,30.44,SE,140,1.0,4.0,45,0.00,,,0.00,weatherlink.com 1.10,2013-09-06 08:07:00,
2013-09-06 02:22:00,58.6,37.0,30.43,SE,140,0.0,3.0,45,0.00,,,0.00,weatherlink.com 1.10,2013-09-06 08:22:00,
2013-09-06 02:37:00,58.2,37.0,30.44,SE,140,0.0,3.0,45,0.00,,,0.00,weatherlink.com 1.10,2013-09-06 08:37:00,
2013-09-06 02:52:00,57.5,36.0,30.44,SE,140,0.0,1.0,45,0.00,,,0.00,weatherlink.com 1.10,2013-09-06 08:52:00,
2013-09-06 03:07:00,57.2,36.0,30.44,SE,140,0.0,1.0,46,0.00,,,0.00,weatherlink.com 1.10,2013-09-06 09:07:00,
2013-09-06 03:22:00,57.8,37.0,30.44,SE,140,0.0,5.0,46,0.00,,,0.00,weatherlink.com 1.10,2013-09-06 09:22:00,
2013-09-06 03:37:00,58.5,37.0,30.44,SE,140,2.0,5.0,45,0.00,,,0.00,weatherlink.com 1.10,2013-09-06 09:37:00,
2013-09-06 03:52:00,58.7,37.0,30.43,SE,140,0.0,5.0,45,0.00,,,0.00,weatherlink.com 1.10,2013-09-06 09:52:00,
2013-09-06 04:07:00,57.5,36.0,30.43,SE,140,0.0,1.0,45,0.00,,,0.00,weatherlink.com 1.10,2013-09-06 10:07:00,
2013-09-06 04:22:00,56.9,37.0,30.43,SE,140,0.0,3.0,47,0.00,,,0.00,weatherlink.com 1.10,2013-09-06 10:22:00,
2013-09-06 04:37:00,56.4,36.0,30.43,SE,140,0.0,2.0,47,0.00,,,0.00,weatherlink.com 1.10,2013-09-06 10:37:00,
2013-09-06 04:52:00,56.8,37.0,30.43,SE,140,3.0,3.0,47,0.00,,,0.00,weatherlink.com 1.10,2013-09-06 10:52:00,
2013-09-06 05:07:00,57.3,36.0,30.44,SE,140,0.0,3.0,46,0.00,,,0.00,weatherlink.com 1.10,2013-09-06 11:07:00,
2013-09-06 05:22:00,56.9,37.0,30.44,SE,140,0.0,4.0,47,0.00,,,0.00,weatherlink.com 1.10,2013-09-06 11:22:00,
2013-09-06 05:37:00,56.4,36.0,30.44,SE,140,1.0,1.0,47,0.00,,,0.00,weatherlink.com 1.10,2013-09-06 11:37:00,
2013-09-06 05:52:00,56.4,37.0,30.44,SE,140,0.0,8.0,48,0.00,,,0.00,weatherlink.com 1.10,2013-09-06 11:52:00,
2013-09-06 06:07:00,56.8,37.0,30.44,SE,140,0.0,5.0,47,0.00,,,0.00,weatherlink.com 1.10,2013-09-06 12:07:00,
2013-09-06 06:22:00,56.0,36.0,30.44,SE,140,0.0,0.0,48,0.00,,,0.00,weatherlink.com 1.10,2013-09-06 12:22:00,
2013-09-06 06:37:00,55.4,36.0,30.44,SE,140,0.0,1.0,49,0.00,,,0.00,weatherlink.com 1.10,2013-09-06 12:37:00,
2013-09-06 06:52:00,55.3,37.0,30.44,SE,140,0.0,2.0,50,0.00,,,0.00,weatherlink.com 1.10,2013-09-06 12:52:00,
2013-09-06 07:07:00,56.3,37.0,30.44,SE,140,0.0,3.0,49,0.00,,,0.00,weatherlink.com 1.10,2013-09-06 13:07:00,
2013-09-06 07:22:00,56.0,37.0,30.44,SE,140,0.0,0.0,50,0.00,,,0.00,weatherlink.com 1.10,2013-09-06 13:22:00,
2013-09-06 07:37:00,57.5,40.0,30.44,SE,140,0.0,1.0,52,0.00,,,0.00,weatherlink.com 1.10,2013-09-06 13:37:00,
2013-09-06 07:52:00,60.7,38.0,30.44,SE,140,0.0,0.0,44,0.00,,,0.00,weatherlink.com 1.10,2013-09-06 13:52:00,
2013-09-06 08:07:00,63.8,39.0,30.43,SE,140,0.0,0.0,41,0.00,,,0.00,weatherlink.com 1.10,2013-09-06 14:07:00,
2013-09-06 08:22:00,64.7,41.0,30.43,SE,140,0.0,1.0,42,0.00,,,0.00,weatherlink.com 1.10,2013-09-06 14:22:00,
2013-09-06 08:37:00,65.0,41.0,30.43,SE,140,0.0,1.0,42,0.00,,,0.00,weatherlink.com 1.10,2013-09-06 14:37:00,
2013-09-06 08:52:00,65.8,41.0,30.43,SE,140,0.0,2.0,40,0.00,,,0.00,weatherlink.com 1.10,2013-09-06 14:52:00,
2013-09-06 09:07:00,66.9,41.0,30.43,SE,140,0.0,1.0,39,0.00,,,0.00,weatherlink.com 1.10,2013-09-06 15:07:00,
2013-09-06 09:22:00,68.2,42.0,30.43,SE,140,1.0,4.0,39,0.00,,,0.00,weatherlink.com 1.10,2013-09-06 15:22:00,
2013-09-06 09:37:00,69.2,42.0,30.43,SE,140,0.0,4.0,37,0.00,,,0.00,weatherlink.com 1.10,2013-09-06 15:37:00,
2013-09-06 09:52:00,70.0,42.0,30.43,SE,140,0.0,3.0,36,0.00,,,0.00,weatherlink.com 1.10,2013-09-06 15:52:00,
2013-09-06 10:07:00,71.6,42.0,30.43,SE,140,2.0,5.0,34,0.00,,,0.00,weatherlink.com 1.10,2013-09-06 16:07:00,
2013-09-06 10:22:00,73.3,42.0,30.42,SE,140,2.0,5.0,33,0.00,,,0.00,weatherlink.com 1.10,2013-09-06 16:22:00,
2013-09-06 10:37:00,73.7,43.0,30.41,SE,141,0.0,4.0,33,0.00,,,0.00,weatherlink.com 1.10,2013-09-06 16:37:00,
2013-09-06 10:53:00,74.7,43.0,30.41,SSW,195,3.0,7.0,32,0.00,,,0.00,weatherlink.com 1.10,2013-09-06 16:53:00,
2013-09-06 11:08:00,75.5,43.0,30.41,SW,214,0.0,6.0,31,0.00,,,0.00,weatherlink.com 1.10,2013-09-06 17:08:00,
2013-09-06 11:23:00,76.2,40.0,30.40,SW,226,1.0,6.0,27,0.00,,,0.00,weatherlink.com 1.10,2013-09-06 17:23:00,
2013-09-06 11:38:00,78.3,43.0,30.39,WNW,303,3.0,9.0,28,0.00,,,0.00,weatherlink.com 1.10,2013-09-06 17:38:00,
2013-09-06 11:53:00,78.2,41.0,30.38,NW,318,4.0,6.0,26,0.00,,,0.00,weatherlink.com 1.10,2013-09-06 17:53:00,
2013-09-06 12:09:00,78.3,41.0,30.37,NW,322,1.0,8.0,26,0.00,,,0.00,weatherlink.com 1.10,2013-09-06 18:09:00,
2013-09-06 12:23:00,79.2,40.0,30.36,NNW,330,0.0,9.0,25,0.00,,,0.00,weatherlink.com 1.10,2013-09-06 18:23:00,
2013-09-06 12:39:00,79.9,41.0,30.36,WNW,295,1.0,8.0,25,0.00,,,0.00,weatherlink.com 1.10,2013-09-06 18:39:00,
2013-09-06 12:54:00,80.2,41.0,30.35,West,276,0.0,10.0,25,0.00,,,0.00,weatherlink.com 1.10,2013-09-06 18:54:00,
2013-09-06 13:09:00,81.6,41.0,30.34,WNW,288,5.0,9.0,24,0.00,,,0.00,weatherlink.com 1.10,2013-09-06 19:09:00,
2013-09-06 13:24:00,82.4,41.0,30.33,WNW,289,4.0,5.0,23,0.00,,,0.00,weatherlink.com 1.10,2013-09-06 19:24:00,
2013-09-06 13:39:00,83.8,41.0,30.32,West,264,4.0,9.0,22,0.00,,,0.00,weatherlink.com 1.10,2013-09-06 19:39:00,
2013-09-06 13:54:00,85.0,42.0,30.31,West,272,6.0,9.0,22,0.00,,,0.00,weatherlink.com 1.10,2013-09-06 19:54:00,
2013-09-06 14:09:00,83.9,41.0,30.30,West,268,0.0,8.0,22,0.00,,,0.00,weatherlink.com 1.10,2013-09-06 20:09:00,
2013-09-06 14:24:00,84.1,41.0,30.30,West,273,0.0,8.0,22,0.00,,,0.00,weatherlink.com 1.10,2013-09-06 20:24:00,
2013-09-06 14:39:00,85.1,42.0,30.29,West,261,3.0,10.0,22,0.00,,,0.00,weatherlink.com 1.10,2013-09-06 20:39:00,
2013-09-06 14:54:00,85.2,41.0,30.29,WSW,244,3.0,9.0,21,0.00,,,0.00,weatherlink.com 1.10,2013-09-06 20:54:00,
2013-09-06 15:09:00,85.6,43.0,30.28,West,265,1.0,12.0,22,0.00,,,0.00,weatherlink.com 1.10,2013-09-06 21:09:00,
2013-09-06 15:24:00,85.4,41.0,30.28,SW,236,5.0,12.0,21,0.00,,,0.00,weatherlink.com 1.10,2013-09-06 21:24:00,
2013-09-06 15:39:00,83.9,41.0,30.27,West,271,2.0,10.0,22,0.00,,,0.00,weatherlink.com 1.10,2013-09-06 21:39:00,
2013-09-06 15:54:00,86.4,41.0,30.27,SW,217,0.0,10.0,20,0.00,,,0.00,weatherlink.com 1.10,2013-09-06 21:54:00,
2013-09-06 16:09:00,85.6,41.0,30.26,WSW,240,1.0,9.0,21,0.00,,,0.00,weatherlink.com 1.10,2013-09-06 22:09:00,
2013-09-06 16:24:00,87.3,42.0,30.25,SW,227,0.0,10.0,20,0.00,,,0.00,weatherlink.com 1.10,2013-09-06 22:24:00,
2013-09-06 16:39:00,87.0,41.0,30.26,West,265,0.0,9.0,20,0.00,,,0.00,weatherlink.com 1.10,2013-09-06 22:39:00,
2013-09-06 16:54:00,85.2,42.0,30.25,West,271,9.0,14.0,22,0.00,,,0.00,weatherlink.com 1.10,2013-09-06 22:54:00,
2013-09-06 17:09:00,85.1,41.0,30.25,West,259,6.0,19.0,21,0.00,,,0.00,weatherlink.com 1.10,2013-09-06 23:09:00,
2013-09-06 17:24:00,85.6,40.0,30.25,WSW,246,3.0,9.0,20,0.00,,,0.00,weatherlink.com 1.10,2013-09-06 23:24:00,
2013-09-06 17:39:00,86.0,42.0,30.25,SW,216,0.0,9.0,21,0.00,,,0.00,weatherlink.com 1.10,2013-09-06 23:39:00,
2013-09-06 17:54:00,85.4,41.0,30.24,West,267,7.0,11.0,21,0.00,,,0.00,weatherlink.com 1.10,2013-09-06 23:54:00,
2013-09-06 18:10:00,84.9,42.0,30.24,West,259,2.0,11.0,22,0.00,,,0.00,weatherlink.com 1.10,2013-09-07 00:10:00,
2013-09-06 18:25:00,83.7,41.0,30.24,West,271,8.0,11.0,22,0.00,,,0.00,weatherlink.com 1.10,2013-09-07 00:25:00,
2013-09-06 18:40:00,82.4,41.0,30.24,SW,229,6.0,9.0,23,0.00,,,0.00,weatherlink.com 1.10,2013-09-07 00:40:00,
2013-09-06 18:55:00,80.8,41.0,30.25,WSW,248,0.0,9.0,24,0.00,,,0.00,weatherlink.com 1.10,2013-09-07 00:55:00,
2013-09-06 19:10:00,78.9,40.0,30.25,WSW,256,4.0,11.0,25,0.00,,,0.00,weatherlink.com 1.10,2013-09-07 01:10:00,
2013-09-06 19:25:00,77.9,39.0,30.26,SW,224,6.0,10.0,25,0.00,,,0.00,weatherlink.com 1.10,2013-09-07 01:25:00,
2013-09-06 19:40:00,76.9,38.0,30.27,South,187,3.0,11.0,25,0.00,,,0.00,weatherlink.com 1.10,2013-09-07 01:40:00,
2013-09-06 19:55:00,75.2,39.0,30.28,South,180,4.0,8.0,27,0.00,,,0.00,weatherlink.com 1.10,2013-09-07 01:55:00,
2013-09-06 20:10:00,74.6,38.0,30.28,South,169,4.0,9.0,27,0.00,,,0.00,weatherlink.com 1.10,2013-09-07 02:10:00,
2013-09-06 20:25:00,73.9,38.0,30.29,SSE,167,5.0,9.0,27,0.00,,,0.00,weatherlink.com 1.10,2013-09-07 02:25:00,
2013-09-06 20:40:00,73.0,38.0,30.30,South,175,2.0,8.0,28,0.00,,,0.00,weatherlink.com 1.10,2013-09-07 02:40:00,
2013-09-06 20:56:00,71.4,37.0,30.30,South,169,6.0,7.0,29,0.00,,,0.00,weatherlink.com 1.10,2013-09-07 02:56:00,
2013-09-06 21:11:00,70.6,38.0,30.31,South,170,5.0,7.0,30,0.00,,,0.00,weatherlink.com 1.10,2013-09-07 03:11:00,
2013-09-06 21:25:00,69.6,38.0,30.31,South,171,5.0,5.0,31,0.00,,,0.00,weatherlink.com 1.10,2013-09-07 03:25:00,
2013-09-06 21:40:00,69.6,38.0,30.31,South,169,4.0,9.0,31,0.00,,,0.00,weatherlink.com 1.10,2013-09-07 03:40:00,
2013-09-06 21:55:00,69.2,37.0,30.31,South,171,6.0,9.0,31,0.00,,,0.00,weatherlink.com 1.10,2013-09-07 03:55:00,
2013-09-06 22:10:00,70.0,38.0,30.32,SSE,161,9.0,9.0,31,0.00,,,0.00,weatherlink.com 1.10,2013-09-07 04:10:00,
2013-09-06 22:25:00,70.3,37.0,30.32,SSE,157,0.0,9.0,30,0.00,,,0.00,weatherlink.com 1.10,2013-09-07 04:25:00,
2013-09-06 22:40:00,68.5,37.0,30.32,SSE,157,0.0,1.0,32,0.00,,,0.00,weatherlink.com 1.10,2013-09-07 04:40:00,
2013-09-06 22:55:00,65.9,37.0,30.32,SSE,156,0.0,1.0,34,0.00,,,0.00,weatherlink.com 1.10,2013-09-07 04:55:00,
2013-09-06 23:10:00,63.9,36.0,30.33,SSE,156,0.0,0.0,36,0.00,,,0.00,weatherlink.com 1.10,2013-09-07 05:10:00,
2013-09-06 23:25:00,61.9,35.0,30.33,SSE,156,0.0,1.0,37,0.00,,,0.00,weatherlink.com 1.10,2013-09-07 05:25:00,
2013-09-06 23:40:00,60.2,36.0,30.33,SSE,157,0.0,1.0,40,0.00,,,0.00,weatherlink.com 1.10,2013-09-07 05:40:00,
2013-09-06 23:55:00,60.7,36.0,30.33,SSE,157,1.0,3.0,40,0.00,,,0.00,weatherlink.com 1.10,2013-09-07 05:55:00,